Time,TemperatureF,DewpointF,PressureIn,WindDirection,WindDirectionDegrees,WindSpeedMPH,WindSpeedGustMPH,Humidity,HourlyPrecipIn,Conditions,Clouds,dailyrainin,SolarRadiationWatts/m^2,SoftwareType,DateUTC
2013-04-06 00:04:00,53.9,49.5,30.06,SW,234,0.0,8.0,85,0.00,,,0.00,0,Wunderground v.1.15,2013-04-06 07:04:00,
2013-04-06 00:10:00,53.9,49.8,30.07,SW,234,0.0,0.0,86,0.00,,,0.00,0,Wunderground v.1.15,2013-04-06 07:10:00,
2013-04-06 00:18:00,53.8,49.7,30.07,SW,234,0.0,0.0,86,0.00,,,0.00,0,Wunderground v.1.15,2013-04-06 07:18:00,
2013-04-06 00:24:00,53.8,49.7,30.07,SW,234,0.0,0.0,86,0.00,,,0.00,0,Wunderground v.1.15,2013-04-06 07:24:00,
2013-04-06 00:30:00,53.8,49.7,30.07,SW,234,0.0,0.0,86,0.00,,,0.00,0,Wunderground v.1.15,2013-04-06 07:30:00,
2013-04-06 00:38:00,53.7,49.6,30.07,SW,234,0.0,0.0,86,0.00,,,0.00,0,Wunderground v.1.15,2013-04-06 07:38:00,
2013-04-06 00:44:00,53.7,49.6,30.07,SW,234,0.0,0.0,86,0.00,,,0.00,0,Wunderground v.1.15,2013-04-06 07:44:00,
2013-04-06 00:50:00,53.6,49.5,30.07,SW,234,0.0,0.0,86,0.00,,,0.00,0,Wunderground v.1.15,2013-04-06 07:50:00,
2013-04-06 00:58:00,53.6,49.5,30.07,SW,234,0.0,0.0,86,0.00,,,0.00,0,Wunderground v.1.15,2013-04-06 07:58:00,
2013-04-06 01:04:00,53.5,49.4,30.07,SW,234,0.0,0.0,86,0.00,,,0.00,0,Wunderground v.1.15,2013-04-06 08:04:00,
2013-04-06 01:10:00,53.4,49.3,30.08,SW,234,0.0,0.0,86,0.00,,,0.00,0,Wunderground v.1.15,2013-04-06 08:10:00,
2013-04-06 01:16:00,53.4,49.3,30.07,SW,234,0.0,0.0,86,0.00,,,0.00,0,Wunderground v.1.15,2013-04-06 08:16:00,
2013-04-06 01:22:00,53.4,49.3,30.07,SW,234,0.0,0.0,86,0.00,,,0.00,0,Wunderground v.1.15,2013-04-06 08:22:00,
2013-04-06 01:28:00,53.3,49.2,30.07,SW,234,0.0,0.0,86,0.00,,,0.00,0,Wunderground v.1.15,2013-04-06 08:28:00,
2013-04-06 01:34:00,53.2,49.1,30.08,SW,234,0.0,0.0,86,0.00,,,0.00,0,Wunderground v.1.15,2013-04-06 08:34:00,
2013-04-06 01:40:00,53.2,49.1,30.08,SW,233,0.0,0.0,86,0.00,,,0.00,0,Wunderground v.1.15,2013-04-06 08:40:00,
2013-04-06 01:46:00,53.2,49.1,30.08,SW,231,0.0,0.0,86,0.00,,,0.00,0,Wunderground v.1.15,2013-04-06 08:46:00,
2013-04-06 01:52:00,53.2,49.1,30.08,SW,231,0.0,0.0,86,0.00,,,0.00,0,Wunderground v.1.15,2013-04-06 08:52:00,
2013-04-06 01:58:00,53.2,49.1,30.08,SW,226,0.0,0.0,86,0.00,,,0.00,0,Wunderground v.1.15,2013-04-06 08:58:00,
2013-04-06 02:06:00,53.2,49.1,30.08,SW,226,0.0,0.0,86,0.00,,,0.00,0,Wunderground v.1.15,2013-04-06 09:06:00,
2013-04-06 02:12:00,53.1,49.0,30.08,SW,225,0.0,0.0,86,0.00,,,0.00,0,Wunderground v.1.15,2013-04-06 09:12:00,
2013-04-06 02:18:00,53.0,48.9,30.08,ESE,105,0.0,0.0,86,0.00,,,0.00,0,Wunderground v.1.15,2013-04-06 09:18:00,
2013-04-06 02:24:00,52.8,49.0,30.08,ESE,105,0.0,0.0,87,0.00,,,0.00,0,Wunderground v.1.15,2013-04-06 09:24:00,
2013-04-06 02:30:00,52.6,48.8,30.07,ESE,105,0.0,0.0,87,0.00,,,0.00,0,Wunderground v.1.15,2013-04-06 09:30:00,
2013-04-06 02:38:00,52.3,48.5,30.07,ESE,104,0.0,0.0,87,0.00,,,0.00,0,Wunderground v.1.15,2013-04-06 09:38:00,
2013-04-06 02:46:00,52.1,48.3,30.07,ESE,104,0.0,0.0,87,0.00,,,0.00,0,Wunderground v.1.15,2013-04-06 09:46:00,
2013-04-06 02:52:00,52.0,48.3,30.07,ESE,104,0.0,0.0,87,0.00,,,0.00,0,Wunderground v.1.15,2013-04-06 09:52:00,
2013-04-06 02:58:00,51.9,48.5,30.07,ESE,104,0.0,0.0,88,0.00,,,0.00,0,Wunderground v.1.15,2013-04-06 09:58:00,
2013-04-06 03:04:00,51.9,48.5,30.08,ESE,104,0.0,0.0,88,0.00,,,0.00,0,Wunderground v.1.15,2013-04-06 10:04:00,
2013-04-06 03:10:00,51.8,48.4,30.07,ESE,104,0.0,0.0,88,0.00,,,0.00,0,Wunderground v.1.15,2013-04-06 10:10:00,
2013-04-06 03:18:00,51.8,48.4,30.07,ESE,104,0.0,0.0,88,0.00,,,0.00,0,Wunderground v.1.15,2013-04-06 10:18:00,
2013-04-06 03:24:00,51.8,48.4,30.07,ESE,104,0.0,0.0,88,0.00,,,0.00,0,Wunderground v.1.15,2013-04-06 10:24:00,
2013-04-06 03:30:00,51.8,48.4,30.06,ESE,104,0.0,0.0,88,0.00,,,0.00,0,Wunderground v.1.15,2013-04-06 10:30:00,
2013-04-06 03:36:00,51.9,48.5,30.06,ESE,104,0.0,0.0,88,0.00,,,0.00,0,Wunderground v.1.15,2013-04-06 10:36:00,
2013-04-06 03:42:00,52.0,48.6,30.06,ESE,104,0.0,0.0,88,0.00,,,0.00,0,Wunderground v.1.15,2013-04-06 10:42:00,
2013-04-06 03:48:00,52.1,48.7,30.06,ESE,104,0.0,0.0,88,0.00,,,0.00,0,Wunderground v.1.15,2013-04-06 10:48:00,
2013-04-06 03:54:00,52.2,48.8,30.06,ESE,104,0.0,0.0,88,0.00,,,0.00,0,Wunderground v.1.15,2013-04-06 10:54:00,
2013-04-06 04:00:00,52.3,48.9,30.06,ESE,104,0.0,0.0,88,0.00,,,0.00,0,Wunderground v.1.15,2013-04-06 11:00:00,
2013-04-06 04:08:00,52.4,48.9,30.07,ESE,104,0.0,0.0,88,0.00,,,0.00,0,Wunderground v.1.15,2013-04-06 11:08:00,
2013-04-06 04:14:00,52.5,49.0,30.07,ESE,104,0.0,0.0,88,0.00,,,0.00,0,Wunderground v.1.15,2013-04-06 11:14:00,
2013-04-06 04:20:00,52.6,49.1,30.07,ESE,104,0.0,0.0,88,0.00,,,0.00,0,Wunderground v.1.15,2013-04-06 11:20:00,
2013-04-06 04:26:00,52.7,49.2,30.07,ESE,104,0.0,0.0,88,0.00,,,0.00,0,Wunderground v.1.15,2013-04-06 11:26:00,
2013-04-06 04:32:00,52.7,49.2,30.06,ESE,104,0.0,0.0,88,0.00,,,0.00,0,Wunderground v.1.15,2013-04-06 11:32:00,
2013-04-06 04:38:00,52.8,49.3,30.06,ESE,104,0.0,0.0,88,0.00,,,0.00,0,Wunderground v.1.15,2013-04-06 11:38:00,
2013-04-06 04:44:00,52.9,49.4,30.06,ESE,104,0.0,0.0,88,0.00,,,0.00,0,Wunderground v.1.15,2013-04-06 11:44:00,
2013-04-06 04:50:00,53.0,49.5,30.06,ESE,104,0.0,0.0,88,0.00,,,0.00,0,Wunderground v.1.15,2013-04-06 11:50:00,
2013-04-06 04:56:00,53.0,49.5,30.06,ESE,104,0.0,0.0,88,0.00,,,0.00,0,Wunderground v.1.15,2013-04-06 11:56:00,
2013-04-06 05:02:00,53.0,49.5,30.06,ESE,104,0.0,0.0,88,0.00,,,0.00,0,Wunderground v.1.15,2013-04-06 12:02:00,
2013-04-06 05:08:00,53.1,49.6,30.06,ESE,104,0.0,0.0,88,0.00,,,0.00,0,Wunderground v.1.15,2013-04-06 12:08:00,
2013-04-06 05:14:00,53.1,49.6,30.06,ESE,104,0.0,0.0,88,0.00,,,0.00,0,Wunderground v.1.15,2013-04-06 12:14:00,
2013-04-06 05:20:00,53.1,49.6,30.06,ESE,104,0.0,0.0,88,0.00,,,0.00,0,Wunderground v.1.15,2013-04-06 12:20:00,
2013-04-06 05:26:00,53.2,49.7,30.07,ESE,104,0.0,0.0,88,0.00,,,0.00,0,Wunderground v.1.15,2013-04-06 12:26:00,
2013-04-06 05:32:00,53.2,49.7,30.07,ESE,104,0.0,0.0,88,0.00,,,0.00,0,Wunderground v.1.15,2013-04-06 12:32:00,
2013-04-06 05:38:00,53.2,49.7,30.07,ESE,104,0.0,0.0,88,0.00,,,0.00,0,Wunderground v.1.15,2013-04-06 12:38:00,
2013-04-06 05:44:00,53.2,49.7,30.07,SW,223,0.0,0.0,88,0.00,,,0.00,0,Wunderground v.1.15,2013-04-06 12:44:00,
2013-04-06 05:50:00,53.2,49.7,30.07,SSE,154,0.0,0.0,88,0.00,,,0.00,0,Wunderground v.1.15,2013-04-06 12:50:00,
2013-04-06 05:58:00,53.3,49.8,30.07,SSE,161,0.0,0.0,88,0.00,,,0.00,0,Wunderground v.1.15,2013-04-06 12:58:00,
2013-04-06 06:04:00,53.4,49.9,30.07,SSE,162,0.0,0.0,88,0.00,,,0.00,0,Wunderground v.1.15,2013-04-06 13:04:00,
2013-04-06 06:10:00,53.4,49.9,30.07,SSE,162,0.0,0.0,88,0.00,,,0.00,0,Wunderground v.1.15,2013-04-06 13:10:00,
2013-04-06 06:16:00,53.4,49.9,30.07,SSE,162,0.0,0.0,88,0.00,,,0.00,0,Wunderground v.1.15,2013-04-06 13:16:00,
2013-04-06 06:22:00,53.4,49.9,30.06,SSE,163,0.0,0.0,88,0.00,,,0.00,0,Wunderground v.1.15,2013-04-06 13:22:00,
2013-04-06 06:28:00,53.4,49.9,30.07,SSE,163,0.0,0.0,88,0.00,,,0.00,0,Wunderground v.1.15,2013-04-06 13:28:00,
2013-04-06 06:34:00,53.4,49.9,30.07,SSE,163,0.0,0.0,88,0.00,,,0.00,0,Wunderground v.1.15,2013-04-06 13:34:00,
2013-04-06 06:40:00,53.4,49.9,30.07,SSE,163,0.0,0.0,88,0.00,,,0.00,0,Wunderground v.1.15,2013-04-06 13:40:00,
2013-04-06 06:46:00,53.3,49.8,30.08,SSE,163,0.0,0.0,88,0.00,,,0.00,0,Wunderground v.1.15,2013-04-06 13:46:00,
2013-04-06 06:52:00,53.4,49.6,30.08,SSE,163,0.0,0.0,87,0.00,,,0.00,5,Wunderground v.1.15,2013-04-06 13:52:00,
2013-04-06 07:00:00,53.6,49.8,30.08,SSE,163,0.0,0.0,87,0.00,,,0.00,7,Wunderground v.1.15,2013-04-06 14:00:00,
2013-04-06 07:06:00,53.6,49.8,30.08,SSE,163,0.0,1.0,87,0.00,,,0.00,11,Wunderground v.1.15,2013-04-06 14:06:00,
2013-04-06 07:12:00,53.6,49.8,30.08,SSE,163,0.0,0.0,87,0.00,,,0.00,16,Wunderground v.1.15,2013-04-06 14:12:00,
2013-04-06 07:18:00,53.6,50.1,30.08,SSE,163,0.0,0.0,88,0.00,,,0.00,30,Wunderground v.1.15,2013-04-06 14:18:00,
2013-04-06 07:24:00,53.7,49.9,30.08,SSE,157,0.0,0.0,87,0.00,,,0.00,40,Wunderground v.1.15,2013-04-06 14:24:00,
2013-04-06 07:30:00,53.8,50.0,30.08,SSE,157,0.0,0.0,87,0.00,,,0.00,49,Wunderground v.1.15,2013-04-06 14:30:00,
2013-04-06 07:38:00,54.0,50.2,30.09,SSE,157,0.0,0.0,87,0.00,,,0.00,76,Wunderground v.1.15,2013-04-06 14:38:00,
2013-04-06 07:44:00,54.3,50.5,30.09,SSE,157,0.0,0.0,87,0.00,,,0.00,63,Wunderground v.1.15,2013-04-06 14:44:00,
2013-04-06 07:50:00,54.5,50.7,30.09,SSE,157,0.0,0.0,87,0.00,,,0.00,84,Wunderground v.1.15,2013-04-06 14:50:00,
2013-04-06 07:56:00,54.7,50.9,30.09,SE,142,0.0,4.0,87,0.00,,,0.00,107,Wunderground v.1.15,2013-04-06 14:56:00,
2013-04-06 08:02:00,55.0,51.2,30.09,SSE,155,0.0,1.0,87,0.00,,,0.00,102,Wunderground v.1.15,2013-04-06 15:02:00,
2013-04-06 08:08:00,55.2,51.1,30.09,SE,136,0.0,1.0,86,0.00,,,0.00,123,Wunderground v.1.15,2013-04-06 15:08:00,
2013-04-06 08:14:00,55.5,51.4,30.09,SE,142,0.0,0.0,86,0.00,,,0.00,153,Wunderground v.1.15,2013-04-06 15:14:00,
2013-04-06 08:20:00,55.8,51.7,30.10,SSE,160,0.0,2.0,86,0.00,,,0.00,141,Wunderground v.1.15,2013-04-06 15:20:00,
2013-04-06 08:28:00,56.1,51.7,30.10,South,177,1.0,2.0,85,0.00,,,0.00,111,Wunderground v.1.15,2013-04-06 15:28:00,
2013-04-06 08:34:00,56.1,51.7,30.10,SSE,162,1.0,1.0,85,0.00,,,0.00,144,Wunderground v.1.15,2013-04-06 15:34:00,
2013-04-06 08:40:00,56.2,51.7,30.10,SE,135,1.0,1.0,85,0.00,,,0.00,144,Wunderground v.1.15,2013-04-06 15:40:00,
2013-04-06 08:46:00,56.3,51.8,30.10,SE,141,1.0,2.0,85,0.00,,,0.00,179,Wunderground v.1.15,2013-04-06 15:46:00,
2013-04-06 08:52:00,56.4,51.9,30.10,South,179,0.0,0.0,85,0.00,,,0.00,183,Wunderground v.1.15,2013-04-06 15:52:00,
2013-04-06 08:58:00,56.6,52.1,30.10,South,174,0.0,1.0,85,0.00,,,0.00,160,Wunderground v.1.15,2013-04-06 15:58:00,
2013-04-06 09:04:00,56.7,52.2,30.10,South,174,0.0,4.0,85,0.00,,,0.00,156,Wunderground v.1.15,2013-04-06 16:04:00,
2013-04-06 09:10:00,56.7,51.9,30.10,SSE,168,0.0,0.0,84,0.00,,,0.00,146,Wunderground v.1.15,2013-04-06 16:10:00,
2013-04-06 09:16:00,56.7,52.2,30.10,SSE,148,0.0,0.0,85,0.00,,,0.00,179,Wunderground v.1.15,2013-04-06 16:16:00,
2013-04-06 09:22:00,56.9,52.4,30.10,SE,138,0.0,0.0,85,0.00,,,0.00,236,Wunderground v.1.15,2013-04-06 16:22:00,
2013-04-06 09:28:00,57.3,52.8,30.10,SE,126,0.0,0.0,85,0.00,,,0.00,311,Wunderground v.1.15,2013-04-06 16:28:00,
2013-04-06 09:34:00,58.1,53.3,30.10,SE,126,0.0,0.0,84,0.00,,,0.00,408,Wunderground v.1.15,2013-04-06 16:34:00,
2013-04-06 09:40:00,58.6,53.5,30.10,ESE,109,1.0,1.0,83,0.00,,,0.00,418,Wunderground v.1.15,2013-04-06 16:40:00,
2013-04-06 09:48:00,59.4,53.9,30.10,ESE,120,1.0,1.0,82,0.00,,,0.00,353,Wunderground v.1.15,2013-04-06 16:48:00,
2013-04-06 09:54:00,59.7,53.9,30.09,SSE,148,0.0,1.0,81,0.00,,,0.00,338,Wunderground v.1.15,2013-04-06 16:54:00,
2013-04-06 10:00:00,59.9,54.1,30.09,SSE,150,0.0,0.0,81,0.00,,,0.00,352,Wunderground v.1.15,2013-04-06 17:00:00,
2013-04-06 10:06:00,59.9,53.7,30.09,South,180,1.0,7.0,80,0.00,,,0.00,292,Wunderground v.1.15,2013-04-06 17:06:00,
2013-04-06 10:12:00,59.9,53.7,30.09,SSE,167,1.0,1.0,80,0.00,,,0.00,221,Wunderground v.1.15,2013-04-06 17:12:00,
2013-04-06 10:18:00,60.0,53.8,30.09,South,180,0.0,4.0,80,0.00,,,0.00,241,Wunderground v.1.15,2013-04-06 17:18:00,
2013-04-06 10:24:00,60.2,54.0,30.09,South,173,0.0,0.0,80,0.00,,,0.00,413,Wunderground v.1.15,2013-04-06 17:24:00,
2013-04-06 10:30:00,60.6,54.0,30.10,SSW,192,0.0,0.0,79,0.00,,,0.00,385,Wunderground v.1.15,2013-04-06 17:30:00,
2013-04-06 10:38:00,60.9,54.0,30.09,South,186,0.0,5.0,78,0.00,,,0.00,341,Wunderground v.1.15,2013-04-06 17:38:00,
2013-04-06 10:44:00,61.4,54.5,30.10,SSW,211,1.0,6.0,78,0.00,,,0.00,538,Wunderground v.1.15,2013-04-06 17:44:00,
2013-04-06 10:50:00,62.3,55.4,30.10,SW,228,1.0,1.0,78,0.00,,,0.00,911,Wunderground v.1.15,2013-04-06 17:50:00,
2013-04-06 10:56:00,63.3,55.6,30.10,WSW,252,2.0,3.0,76,0.00,,,0.00,722,Wunderground v.1.15,2013-04-06 17:56:00,
2013-04-06 11:02:00,64.8,57.1,30.10,SW,223,2.0,7.0,76,0.00,,,0.01,582,Wunderground v.1.15,2013-04-06 18:02:00,
2013-04-06 11:08:00,64.8,56.3,30.10,South,176,1.0,7.0,74,0.00,,,0.01,531,Wunderground v.1.15,2013-04-06 18:08:00,
2013-04-06 11:18:00,64.4,55.2,30.10,South,190,2.0,5.0,72,0.00,,,0.01,350,Wunderground v.1.15,2013-04-06 18:18:00,
2013-04-06 11:24:00,64.6,55.4,30.10,SW,219,2.0,5.0,72,0.00,,,0.01,1004,Wunderground v.1.15,2013-04-06 18:24:00,
2013-04-06 11:30:00,64.7,55.1,30.10,SW,223,3.0,3.0,71,0.00,,,0.01,471,Wunderground v.1.15,2013-04-06 18:30:00,
2013-04-06 11:36:00,64.4,55.6,30.10,SW,224,3.0,3.0,73,0.00,,,0.01,821,Wunderground v.1.15,2013-04-06 18:36:00,
2013-04-06 11:42:00,64.9,55.3,30.11,SSW,193,2.0,3.0,71,0.00,,,0.01,1016,Wunderground v.1.15,2013-04-06 18:42:00,
2013-04-06 11:48:00,65.4,55.0,30.10,SSW,192,3.0,3.0,69,0.00,,,0.01,1143,Wunderground v.1.15,2013-04-06 18:48:00,
2013-04-06 11:54:00,65.4,55.4,30.10,WSW,254,3.0,6.0,70,0.00,,,0.01,483,Wunderground v.1.15,2013-04-06 18:54:00,
2013-04-06 12:00:00,65.3,55.3,30.11,SW,217,3.0,4.0,70,0.00,,,0.01,1072,Wunderground v.1.15,2013-04-06 19:00:00,
2013-04-06 12:06:00,65.7,55.2,30.11,SW,217,5.0,9.0,69,0.00,,,0.01,921,Wunderground v.1.15,2013-04-06 19:06:00,
2013-04-06 12:12:00,65.7,55.2,30.10,SSW,193,4.0,8.0,69,0.00,,,0.01,939,Wunderground v.1.15,2013-04-06 19:12:00,
2013-04-06 12:18:00,65.9,55.8,30.10,SW,223,3.0,9.0,70,0.00,,,0.01,997,Wunderground v.1.15,2013-04-06 19:18:00,
2013-04-06 12:28:00,66.6,55.7,30.09,WSW,242,3.0,8.0,68,0.00,,,0.01,969,Wunderground v.1.15,2013-04-06 19:28:00,
2013-04-06 12:34:00,67.3,55.5,30.10,SSW,198,2.0,2.0,66,0.00,,,0.01,751,Wunderground v.1.15,2013-04-06 19:34:00,
2013-04-06 12:40:00,66.8,55.1,30.10,WSW,246,1.0,4.0,66,0.00,,,0.01,429,Wunderground v.1.15,2013-04-06 19:40:00,
2013-04-06 12:46:00,66.3,54.6,30.09,WSW,247,3.0,5.0,66,0.00,,,0.01,912,Wunderground v.1.15,2013-04-06 19:46:00,
2013-04-06 12:52:00,66.2,54.9,30.09,SW,222,3.0,5.0,67,0.00,,,0.01,283,Wunderground v.1.15,2013-04-06 19:52:00,
2013-04-06 12:58:00,66.3,55.4,30.09,SW,229,4.0,8.0,68,0.00,,,0.01,907,Wunderground v.1.15,2013-04-06 19:58:00,
2013-04-06 13:06:00,67.2,56.3,30.09,SW,223,2.0,11.0,68,0.00,,,0.01,923,Wunderground v.1.15,2013-04-06 20:06:00,
2013-04-06 13:12:00,67.5,54.9,30.08,WSW,244,2.0,2.0,64,0.00,,,0.01,879,Wunderground v.1.15,2013-04-06 20:12:00,
2013-04-06 13:18:00,67.6,55.4,30.08,SW,223,2.0,5.0,65,0.00,,,0.01,923,Wunderground v.1.15,2013-04-06 20:18:00,
2013-04-06 13:24:00,67.4,55.2,30.08,SW,219,1.0,1.0,65,0.00,,,0.01,923,Wunderground v.1.15,2013-04-06 20:24:00,
2013-04-06 13:30:00,67.8,55.6,30.08,SW,234,1.0,1.0,65,0.00,,,0.01,631,Wunderground v.1.15,2013-04-06 20:30:00,
2013-04-06 13:36:00,68.0,54.9,30.07,SSE,157,2.0,2.0,63,0.00,,,0.01,1000,Wunderground v.1.15,2013-04-06 20:36:00,
2013-04-06 13:42:00,68.2,56.0,30.07,South,187,2.0,4.0,65,0.00,,,0.01,260,Wunderground v.1.15,2013-04-06 20:42:00,
2013-04-06 13:48:00,68.6,55.5,30.07,ESE,107,1.0,4.0,63,0.00,,,0.01,939,Wunderground v.1.15,2013-04-06 20:48:00,
2013-04-06 13:54:00,69.1,55.5,30.06,South,182,1.0,2.0,62,0.00,,,0.01,923,Wunderground v.1.15,2013-04-06 20:54:00,
2013-04-06 14:00:00,69.6,55.6,30.06,SSW,209,0.0,0.0,61,0.00,,,0.01,949,Wunderground v.1.15,2013-04-06 21:00:00,
2013-04-06 14:06:00,69.7,55.6,30.06,South,175,1.0,13.0,61,0.00,,,0.01,1004,Wunderground v.1.15,2013-04-06 21:06:00,
2013-04-06 14:12:00,70.1,54.6,30.06,South,171,1.0,1.0,58,0.00,,,0.01,928,Wunderground v.1.15,2013-04-06 21:12:00,
2013-04-06 14:18:00,69.9,55.8,30.06,ESE,123,1.0,7.0,61,0.00,,,0.01,854,Wunderground v.1.15,2013-04-06 21:18:00,
2013-04-06 14:24:00,70.3,54.8,30.06,SE,133,2.0,2.0,58,0.00,,,0.01,914,Wunderground v.1.15,2013-04-06 21:24:00,
2013-04-06 14:30:00,70.4,55.4,30.05,SW,220,1.0,3.0,59,0.00,,,0.01,898,Wunderground v.1.15,2013-04-06 21:30:00,
2013-04-06 14:36:00,70.2,54.7,30.06,SSE,147,1.0,3.0,58,0.00,,,0.01,837,Wunderground v.1.15,2013-04-06 21:36:00,
2013-04-06 14:42:00,70.9,55.4,30.06,SE,126,1.0,1.0,58,0.00,,,0.01,874,Wunderground v.1.15,2013-04-06 21:42:00,
2013-04-06 14:48:00,71.1,54.6,30.06,SSW,199,1.0,2.0,56,0.00,,,0.01,838,Wunderground v.1.15,2013-04-06 21:48:00,
2013-04-06 14:54:00,70.8,53.3,30.05,SE,134,1.0,1.0,54,0.00,,,0.01,687,Wunderground v.1.15,2013-04-06 21:54:00,
2013-04-06 15:02:00,70.9,54.9,30.05,ESE,112,1.0,9.0,57,0.00,,,0.01,429,Wunderground v.1.15,2013-04-06 22:02:00,
2013-04-06 15:08:00,70.7,55.2,30.05,SE,136,1.0,9.0,58,0.00,,,0.01,369,Wunderground v.1.15,2013-04-06 22:08:00,
2013-04-06 15:14:00,70.1,53.7,30.05,SSW,211,0.0,4.0,56,0.00,,,0.01,403,Wunderground v.1.15,2013-04-06 22:14:00,
2013-04-06 15:20:00,69.5,54.1,30.05,SE,142,1.0,1.0,58,0.00,,,0.01,418,Wunderground v.1.15,2013-04-06 22:20:00,
2013-04-06 15:26:00,69.3,53.9,30.05,South,178,1.0,1.0,58,0.00,,,0.01,408,Wunderground v.1.15,2013-04-06 22:26:00,
2013-04-06 15:32:00,69.4,54.4,30.05,SSE,167,1.0,1.0,59,0.00,,,0.01,297,Wunderground v.1.15,2013-04-06 22:32:00,
2013-04-06 15:38:00,69.3,54.4,30.05,SSE,157,1.0,1.0,59,0.00,,,0.01,306,Wunderground v.1.15,2013-04-06 22:38:00,
2013-04-06 15:44:00,69.2,54.3,30.05,SE,140,1.0,1.0,59,0.00,,,0.01,441,Wunderground v.1.15,2013-04-06 22:44:00,
2013-04-06 15:50:00,69.4,54.9,30.04,SE,131,0.0,6.0,60,0.00,,,0.01,654,Wunderground v.1.15,2013-04-06 22:50:00,
2013-04-06 15:56:00,70.5,55.5,30.04,SSE,153,1.0,6.0,59,0.00,,,0.01,721,Wunderground v.1.15,2013-04-06 22:56:00,
2013-04-06 16:02:00,71.0,55.5,30.04,SW,215,1.0,11.0,58,0.00,,,0.01,668,Wunderground v.1.15,2013-04-06 23:02:00,
2013-04-06 16:08:00,71.3,55.3,30.04,ESE,115,1.0,11.0,57,0.00,,,0.01,700,Wunderground v.1.15,2013-04-06 23:08:00,
2013-04-06 16:16:00,70.8,55.3,30.04,SE,134,1.0,1.0,58,0.00,,,0.01,294,Wunderground v.1.15,2013-04-06 23:16:00,
2013-04-06 16:26:00,70.2,55.2,30.04,SE,132,1.0,3.0,59,0.00,,,0.01,227,Wunderground v.1.15,2013-04-06 23:26:00,
2013-04-06 16:32:00,69.5,54.5,30.03,ESE,119,1.0,2.0,59,0.00,,,0.01,311,Wunderground v.1.15,2013-04-06 23:32:00,
2013-04-06 16:40:00,69.9,54.9,30.03,East,98,1.0,1.0,59,0.00,,,0.01,485,Wunderground v.1.15,2013-04-06 23:40:00,
2013-04-06 16:46:00,70.7,55.2,30.02,SSW,204,1.0,2.0,58,0.00,,,0.01,468,Wunderground v.1.15,2013-04-06 23:46:00,
2013-04-06 16:52:00,71.2,55.2,30.02,SE,132,2.0,3.0,57,0.00,,,0.01,504,Wunderground v.1.15,2013-04-06 23:52:00,
2013-04-06 16:58:00,71.1,55.6,30.02,SSE,148,2.0,3.0,58,0.00,,,0.01,466,Wunderground v.1.15,2013-04-06 23:58:00,
2013-04-06 17:04:00,71.0,55.0,30.02,SE,139,2.0,9.0,57,0.00,,,0.01,461,Wunderground v.1.15,2013-04-07 00:04:00,
2013-04-06 17:10:00,71.0,55.5,30.02,SE,144,2.0,2.0,58,0.00,,,0.01,410,Wunderground v.1.15,2013-04-07 00:10:00,
2013-04-06 17:16:00,70.8,55.3,30.01,SE,125,1.0,3.0,58,0.00,,,0.01,207,Wunderground v.1.15,2013-04-07 00:16:00,
2013-04-06 17:22:00,70.4,55.4,30.01,SE,126,1.0,6.0,59,0.00,,,0.01,176,Wunderground v.1.15,2013-04-07 00:22:00,
2013-04-06 17:28:00,69.5,55.5,30.02,ESE,113,3.0,6.0,61,0.00,,,0.01,185,Wunderground v.1.15,2013-04-07 00:28:00,
2013-04-06 17:34:00,69.3,55.3,30.02,SE,134,2.0,3.0,61,0.00,,,0.01,213,Wunderground v.1.15,2013-04-07 00:34:00,
2013-04-06 17:40:00,69.6,55.1,30.01,SE,138,0.0,0.0,60,0.00,,,0.01,232,Wunderground v.1.15,2013-04-07 00:40:00,
2013-04-06 17:46:00,69.9,54.4,30.02,SE,140,1.0,1.0,58,0.00,,,0.01,267,Wunderground v.1.15,2013-04-07 00:46:00,
2013-04-06 17:52:00,70.3,54.8,30.01,SSE,162,0.0,0.0,58,0.00,,,0.01,269,Wunderground v.1.15,2013-04-07 00:52:00,
2013-04-06 17:58:00,70.5,54.5,30.01,South,172,1.0,6.0,57,0.00,,,0.01,209,Wunderground v.1.15,2013-04-07 00:58:00,
2013-04-06 18:04:00,70.1,54.6,30.01,SE,136,2.0,10.0,58,0.00,,,0.01,236,Wunderground v.1.15,2013-04-07 01:04:00,
2013-04-06 18:10:00,69.3,55.3,30.01,SW,219,3.0,3.0,61,0.00,,,0.01,125,Wunderground v.1.15,2013-04-07 01:10:00,
2013-04-06 18:18:00,68.5,55.8,30.00,SSW,209,1.0,3.0,64,0.00,,,0.01,116,Wunderground v.1.15,2013-04-07 01:18:00,
2013-04-06 18:26:00,67.8,55.2,30.01,SW,222,1.0,7.0,64,0.00,,,0.01,111,Wunderground v.1.15,2013-04-07 01:26:00,
2013-04-06 18:32:00,67.3,55.5,30.01,SW,219,2.0,2.0,66,0.00,,,0.01,91,Wunderground v.1.15,2013-04-07 01:32:00,
2013-04-06 18:38:00,67.0,55.7,30.01,SSW,211,1.0,2.0,67,0.00,,,0.01,83,Wunderground v.1.15,2013-04-07 01:38:00,
2013-04-06 18:48:00,66.4,55.5,30.01,WSW,240,2.0,2.0,68,0.00,,,0.01,77,Wunderground v.1.15,2013-04-07 01:48:00,
2013-04-06 18:56:00,66.1,55.6,30.01,SW,227,1.0,3.0,69,0.00,,,0.01,56,Wunderground v.1.15,2013-04-07 01:56:00,
2013-04-06 19:02:00,65.8,55.3,30.01,SW,221,1.0,2.0,69,0.00,,,0.01,44,Wunderground v.1.15,2013-04-07 02:02:00,
2013-04-06 19:08:00,65.6,55.2,30.01,SSW,198,1.0,11.0,69,0.00,,,0.01,33,Wunderground v.1.15,2013-04-07 02:08:00,
2013-04-06 19:16:00,65.0,55.8,30.01,SW,222,0.0,0.0,72,0.00,,,0.01,23,Wunderground v.1.15,2013-04-07 02:16:00,
2013-04-06 19:22:00,64.5,55.7,30.01,SW,217,0.0,0.0,73,0.00,,,0.01,16,Wunderground v.1.15,2013-04-07 02:22:00,
2013-04-06 19:28:00,64.1,55.6,30.01,SW,219,0.0,0.0,74,0.00,,,0.01,11,Wunderground v.1.15,2013-04-07 02:28:00,
2013-04-06 19:36:00,63.8,55.0,30.02,SW,234,0.0,1.0,73,0.00,,,0.01,0,Wunderground v.1.15,2013-04-07 02:36:00,
2013-04-06 19:42:00,63.6,54.8,30.02,SW,227,1.0,5.0,73,0.00,,,0.01,0,Wunderground v.1.15,2013-04-07 02:42:00,
2013-04-06 19:48:00,63.3,54.5,30.02,SW,215,2.0,5.0,73,0.00,,,0.01,0,Wunderground v.1.15,2013-04-07 02:48:00,
2013-04-06 19:54:00,63.0,54.6,30.02,SW,215,1.0,1.0,74,0.00,,,0.01,0,Wunderground v.1.15,2013-04-07 02:54:00,
2013-04-06 20:00:00,62.5,54.1,30.02,SW,230,1.0,1.0,74,0.00,,,0.01,0,Wunderground v.1.15,2013-04-07 03:00:00,
2013-04-06 20:06:00,62.2,53.8,30.02,SW,229,1.0,14.0,74,0.00,,,0.01,0,Wunderground v.1.15,2013-04-07 03:06:00,
2013-04-06 20:12:00,62.0,53.6,30.02,SW,230,1.0,1.0,74,0.00,,,0.01,0,Wunderground v.1.15,2013-04-07 03:12:00,
2013-04-06 20:18:00,61.6,53.6,30.02,SW,231,1.0,1.0,75,0.00,,,0.01,0,Wunderground v.1.15,2013-04-07 03:18:00,
2013-04-06 20:24:00,61.2,53.6,30.02,SW,227,0.0,0.0,76,0.00,,,0.01,0,Wunderground v.1.15,2013-04-07 03:24:00,
2013-04-06 20:30:00,60.8,53.5,30.02,SW,220,1.0,2.0,77,0.00,,,0.01,0,Wunderground v.1.15,2013-04-07 03:30:00,
2013-04-06 20:36:00,60.5,53.3,30.02,SW,234,1.0,4.0,77,0.00,,,0.01,0,Wunderground v.1.15,2013-04-07 03:36:00,
2013-04-06 20:42:00,60.2,53.0,30.02,WSW,244,1.0,1.0,77,0.00,,,0.01,0,Wunderground v.1.15,2013-04-07 03:42:00,
2013-04-06 20:48:00,60.1,52.9,30.02,WSW,242,0.0,1.0,77,0.00,,,0.01,0,Wunderground v.1.15,2013-04-07 03:48:00,
2013-04-06 20:54:00,59.8,52.6,30.02,WSW,242,0.0,0.0,77,0.00,,,0.01,0,Wunderground v.1.15,2013-04-07 03:54:00,
2013-04-06 21:00:00,59.6,52.4,30.03,WSW,242,0.0,0.0,77,0.00,,,0.01,0,Wunderground v.1.15,2013-04-07 04:00:00,
2013-04-06 21:02:00,59.5,51.9,30.03,WSW,242,0.0,7.0,76,0.00,,,0.01,0,Wunderground v.1.15,2013-04-07 04:02:00,
2013-04-06 21:08:00,59.4,51.8,30.03,WSW,242,0.0,7.0,76,0.00,,,0.01,0,Wunderground v.1.15,2013-04-07 04:08:00,
2013-04-06 21:10:00,59.4,51.5,30.03,WSW,242,0.0,0.0,75,0.00,,,0.01,0,Wunderground v.1.15,2013-04-07 04:10:00,
2013-04-06 21:18:00,59.7,51.0,30.03,WSW,244,0.0,4.0,73,0.00,,,0.01,0,Wunderground v.1.15,2013-04-07 04:18:00,
2013-04-06 21:24:00,59.9,50.8,30.03,WSW,244,0.0,0.0,72,0.00,,,0.01,0,Wunderground v.1.15,2013-04-07 04:24:00,
2013-04-06 21:30:00,59.9,50.5,30.03,WSW,244,0.0,0.0,71,0.00,,,0.01,0,Wunderground v.1.15,2013-04-07 04:30:00,
2013-04-06 21:34:00,59.7,50.7,30.03,WSW,243,0.0,0.0,72,0.00,,,0.01,0,Wunderground v.1.15,2013-04-07 04:34:00,
2013-04-06 21:40:00,59.5,50.8,30.04,WSW,242,0.0,0.0,73,0.00,,,0.01,0,Wunderground v.1.15,2013-04-07 04:40:00,
2013-04-06 21:48:00,59.3,50.3,30.04,WSW,242,0.0,0.0,72,0.00,,,0.01,0,Wunderground v.1.15,2013-04-07 04:48:00,
2013-04-06 21:54:00,59.2,50.2,30.04,WSW,242,0.0,0.0,72,0.00,,,0.01,0,Wunderground v.1.15,2013-04-07 04:54:00,
2013-04-06 22:00:00,59.1,50.5,30.04,WSW,242,0.0,0.0,73,0.00,,,0.01,0,Wunderground v.1.15,2013-04-07 05:00:00,
2013-04-06 22:06:00,59.0,50.4,30.04,SW,228,0.0,6.0,73,0.00,,,0.01,0,Wunderground v.1.15,2013-04-07 05:06:00,
2013-04-06 22:12:00,58.5,50.2,30.04,SW,232,0.0,0.0,74,0.00,,,0.01,0,Wunderground v.1.15,2013-04-07 05:12:00,
2013-04-06 22:18:00,58.5,50.6,30.04,WSW,251,0.0,0.0,75,0.00,,,0.01,0,Wunderground v.1.15,2013-04-07 05:18:00,
2013-04-06 22:24:00,58.2,50.3,30.05,WSW,248,2.0,6.0,75,0.00,,,0.01,0,Wunderground v.1.15,2013-04-07 05:24:00,
2013-04-06 22:30:00,58.1,50.2,30.05,WSW,244,2.0,2.0,75,0.00,,,0.01,0,Wunderground v.1.15,2013-04-07 05:30:00,
2013-04-06 22:38:00,58.2,50.3,30.05,WSW,246,1.0,2.0,75,0.00,,,0.01,0,Wunderground v.1.15,2013-04-07 05:38:00,
2013-04-06 22:44:00,58.3,50.4,30.05,WSW,242,0.0,1.0,75,0.00,,,0.01,0,Wunderground v.1.15,2013-04-07 05:44:00,
2013-04-06 22:50:00,58.2,50.7,30.05,WSW,242,0.0,0.0,76,0.00,,,0.01,0,Wunderground v.1.15,2013-04-07 05:50:00,
2013-04-06 22:56:00,58.1,50.6,30.05,WSW,241,0.0,0.0,76,0.00,,,0.01,0,Wunderground v.1.15,2013-04-07 05:56:00,
2013-04-06 23:02:00,58.1,49.9,30.05,WSW,237,0.0,5.0,74,0.00,,,0.01,0,Wunderground v.1.15,2013-04-07 06:02:00,
2013-04-06 23:08:00,58.5,50.2,30.05,WSW,237,0.0,5.0,74,0.00,,,0.01,0,Wunderground v.1.15,2013-04-07 06:08:00,
2013-04-06 23:14:00,58.5,49.9,30.05,SW,236,0.0,0.0,73,0.00,,,0.01,0,Wunderground v.1.15,2013-04-07 06:14:00,
2013-04-06 23:20:00,58.7,48.9,30.05,SW,236,0.0,0.0,70,0.00,,,0.01,0,Wunderground v.1.15,2013-04-07 06:20:00,
2013-04-06 23:26:00,59.0,48.8,30.05,SW,236,0.0,0.0,69,0.00,,,0.01,0,Wunderground v.1.15,2013-04-07 06:26:00,
2013-04-06 23:32:00,59.1,48.5,30.05,SW,234,0.0,0.0,68,0.00,,,0.01,0,Wunderground v.1.15,2013-04-07 06:32:00,
2013-04-06 23:38:00,59.2,48.6,30.05,SW,234,0.0,1.0,68,0.00,,,0.01,0,Wunderground v.1.15,2013-04-07 06:38:00,
2013-04-06 23:44:00,59.2,48.6,30.05,SW,233,0.0,0.0,68,0.00,,,0.01,0,Wunderground v.1.15,2013-04-07 06:44:00,
2013-04-06 23:50:00,59.1,47.7,30.05,SW,220,0.0,0.0,66,0.00,,,0.01,0,Wunderground v.1.15,2013-04-07 06:50:00,
2013-04-06 23:56:00,59.3,47.1,30.05,SW,218,0.0,4.0,64,0.00,,,0.01,0,Wunderground v.1.15,2013-04-07 06:56:00,